Portada
METAR-TAF:

METAR-TAF

Aeroports :

Hefei, Xina

latitud: 31-52N, longitud: 117-14E, altitud: 36 m

Observació

L'informe es va fer fa 1 hora i 5 minuts, a les 10:00 UTC
Vent 6 kt del Est
Temperatura 5°C
Humitat 100%
Pressió 1022 hPa
Visibilitat: 1400 m
Cel cobert a una alçada de 4600 ft
boirina

METAR: ZSOF 211000Z 09003MPS 1400 R15/P2000N BR OVC046 05/05 Q1022 NOSIG

Hora: 19:05 (11:05 UTC)

Pronòstic

L'informe es va fer fa 7 hores i 58 minuts, a les 03:07 UTC
Pronòstic vàlid del 21 a les 06 UTC al 22 a les 06 UTC
Vent 6 kt del Est
Visibilitat: 3000 m
pluja, boirina
Evolucionant progressivament
l' 21 a les 10 UTC al 21 a les 11 UTC
Visibilitat: 2000 m
Cel ennuvolat a una alçada de 600 ft
Cel cobert a una alçada de 3000 ft
Temporalment
l' 22 a les 00 UTC al 22 a les 06 UTC
Visibilitat: 1400 m
xàfecs de pluja, boirina

TAF: ZSOF 210307Z 2106/2206 09003MPS 3000 -RA BR NSC TX07/2206Z TN04/2123Z BECMG 2110/2111 2000 BKN006 OVC030 TEMPO 2200/2206 1400 SHRA BR

Observacions i pronòstics meteorològics de més de 4000 aeroports (METAR i TAF).

Les estacions disponibles són els punts grocs i vermells al mapa.

Posi el ratolí al punt desitjat per veure el nom de l'estació.

Feu clic per veure les observacions i els pronòstics meteorològics.

Per canviar el mapa: feu clic els botons verds amb una creu de color negre per apropar; al botó verd amb un guió per allunyar la imatge; o en les fletxes verdes per a mapes adjacents.


METAR-TAF: